sensor_id;sensor_type;location;lat;lon;timestamp;P1;durP1;ratioP1;P2;durP2;ratioP2
52434;SDS011;38354;52.892;6.148;2022-10-17T03:00:43;23.58;;;13.98;;
52434;SDS011;38354;52.892;6.148;2022-10-17T03:03:20;23.10;;;14.75;;
52434;SDS011;38354;52.892;6.148;2022-10-17T03:05:47;23.17;;;14.23;;
52434;SDS011;38354;52.892;6.148;2022-10-17T03:08:13;26.17;;;15.18;;
52434;SDS011;38354;52.892;6.148;2022-10-17T03:10:39;24.02;;;14.20;;
52434;SDS011;38354;52.892;6.148;2022-10-17T03:13:04;21.75;;;14.27;;
52434;SDS011;38354;52.892;6.148;2022-10-17T03:15:30;22.40;;;15.63;;
52434;SDS011;38354;52.892;6.148;2022-10-17T03:17:56;22.65;;;15.27;;
52434;SDS011;38354;52.892;6.148;2022-10-17T03:20:21;23.85;;;15.15;;
52434;SDS011;38354;52.892;6.148;2022-10-17T03:22:47;21.95;;;15.25;;
52434;SDS011;38354;52.892;6.148;2022-10-17T03:25:12;25.38;;;15.50;;
52434;SDS011;38354;52.892;6.148;2022-10-17T03:27:38;25.33;;;15.40;;
52434;SDS011;38354;52.892;6.148;2022-10-17T03:30:04;26.33;;;16.33;;
52434;SDS011;38354;52.892;6.148;2022-10-17T03:32:31;27.48;;;17.20;;
52434;SDS011;38354;52.892;6.148;2022-10-17T03:34:58;26.73;;;16.67;;
52434;SDS011;38354;52.892;6.148;2022-10-17T03:37:23;24.55;;;15.98;;
52434;SDS011;38354;52.892;6.148;2022-10-17T03:39:49;24.05;;;17.05;;
52434;SDS011;38354;52.892;6.148;2022-10-17T03:42:15;27.05;;;17.42;;
52434;SDS011;38354;52.892;6.148;2022-10-17T03:44:41;25.60;;;16.58;;
52434;SDS011;38354;52.892;6.148;2022-10-17T03:47:06;26.00;;;17.13;;
52434;SDS011;38354;52.892;6.148;2022-10-17T03:49:32;26.98;;;17.15;;
52434;SDS011;38354;52.892;6.148;2022-10-17T03:51:58;24.05;;;16.80;;
52434;SDS011;38354;52.892;6.148;2022-10-17T03:54:23;25.88;;;16.70;;
52434;SDS011;38354;52.892;6.148;2022-10-17T03:56:49;30.67;;;17.63;;
52434;SDS011;38354;52.892;6.148;2022-10-17T03:59:15;25.50;;;16.70;;
52434;SDS011;38354;52.892;6.148;2022-10-17T04:01:40;26.80;;;17.40;;
52434;SDS011;38354;52.892;6.148;2022-10-17T04:04:06;27.30;;;17.08;;
52434;SDS011;38354;52.892;6.148;2022-10-17T04:06:33;28.85;;;17.20;;
52434;SDS011;38354;52.892;6.148;2022-10-17T04:08:59;25.85;;;16.85;;
52434;SDS011;38354;52.892;6.148;2022-10-17T04:11:24;29.15;;;17.15;;
52434;SDS011;38354;52.892;6.148;2022-10-17T04:13:54;25.80;;;17.17;;
52434;SDS011;38354;52.892;6.148;2022-10-17T04:16:20;30.23;;;18.60;;
52434;SDS011;38354;52.892;6.148;2022-10-17T04:18:51;25.92;;;17.55;;
52434;SDS011;38354;52.892;6.148;2022-10-17T04:21:19;26.27;;;18.45;;
52434;SDS011;38354;52.892;6.148;2022-10-17T04:23:45;25.17;;;17.88;;
52434;SDS011;38354;52.892;6.148;2022-10-17T04:26:11;31.45;;;16.98;;
52434;SDS011;38354;52.892;6.148;2022-10-17T04:28:36;28.88;;;17.73;;
52434;SDS011;38354;52.892;6.148;2022-10-17T04:31:03;31.45;;;17.67;;
52434;SDS011;38354;52.892;6.148;2022-10-17T04:33:31;29.88;;;18.23;;
52434;SDS011;38354;52.892;6.148;2022-10-17T04:35:58;25.42;;;17.02;;
52434;SDS011;38354;52.892;6.148;2022-10-17T04:38:25;28.88;;;17.58;;
52434;SDS011;38354;52.892;6.148;2022-10-17T04:40:51;30.73;;;17.92;;
52434;SDS011;38354;52.892;6.148;2022-10-17T04:43:17;27.10;;;17.42;;
52434;SDS011;38354;52.892;6.148;2022-10-17T04:45:43;30.60;;;17.95;;
52434;SDS011;38354;52.892;6.148;2022-10-17T04:48:09;29.27;;;18.13;;
52434;SDS011;38354;52.892;6.148;2022-10-17T04:50:34;26.42;;;16.98;;
52434;SDS011;38354;52.892;6.148;2022-10-17T04:53:00;27.23;;;17.63;;
52434;SDS011;38354;52.892;6.148;2022-10-17T04:55:25;24.50;;;17.73;;
52434;SDS011;38354;52.892;6.148;2022-10-17T04:57:51;29.80;;;17.30;;
52434;SDS011;38354;52.892;6.148;2022-10-17T05:00:17;25.98;;;16.88;;
52434;SDS011;38354;52.892;6.148;2022-10-17T05:02:43;29.67;;;18.23;;
52434;SDS011;38354;52.892;6.148;2022-10-17T05:05:08;30.23;;;17.73;;
52434;SDS011;38354;52.892;6.148;2022-10-17T05:07:34;28.88;;;18.30;;
52434;SDS011;38354;52.892;6.148;2022-10-17T05:09:59;26.35;;;17.13;;
52434;SDS011;38354;52.892;6.148;2022-10-17T05:12:25;29.58;;;17.75;;
52434;SDS011;38354;52.892;6.148;2022-10-17T05:14:50;28.80;;;17.85;;
52434;SDS011;38354;52.892;6.148;2022-10-17T05:17:16;25.25;;;17.17;;
52434;SDS011;38354;52.892;6.148;2022-10-17T05:19:42;26.52;;;17.33;;
52434;SDS011;38354;52.892;6.148;2022-10-17T05:22:07;27.50;;;17.00;;
52434;SDS011;38354;52.892;6.148;2022-10-17T05:24:33;28.70;;;18.02;;
52434;SDS011;38354;52.892;6.148;2022-10-17T05:26:58;28.90;;;15.30;;
52434;SDS011;38354;52.892;6.148;2022-10-17T05:29:24;25.35;;;14.98;;
52434;SDS011;38354;52.892;6.148;2022-10-17T05:31:50;29.92;;;15.60;;
52434;SDS011;38354;52.892;6.148;2022-10-17T05:34:15;32.40;;;16.70;;
52434;SDS011;38354;52.892;6.148;2022-10-17T05:36:41;28.27;;;14.65;;
52434;SDS011;38354;52.892;6.148;2022-10-17T05:39:07;25.70;;;14.80;;
52434;SDS011;38354;52.892;6.148;2022-10-17T05:41:33;30.67;;;15.57;;
52434;SDS011;38354;52.892;6.148;2022-10-17T05:43:59;27.10;;;15.20;;
52434;SDS011;38354;52.892;6.148;2022-10-17T05:46:24;26.75;;;15.10;;
52434;SDS011;38354;52.892;6.148;2022-10-17T05:48:50;23.10;;;13.60;;
52434;SDS011;38354;52.892;6.148;2022-10-17T05:51:16;26.10;;;14.80;;
52434;SDS011;38354;52.892;6.148;2022-10-17T05:53:42;25.85;;;14.57;;
52434;SDS011;38354;52.892;6.148;2022-10-17T05:56:08;24.52;;;14.30;;
52434;SDS011;38354;52.892;6.148;2022-10-17T05:58:38;26.52;;;15.07;;
52434;SDS011;38354;52.892;6.148;2022-10-17T06:01:05;21.83;;;11.52;;
52434;SDS011;38354;52.892;6.148;2022-10-17T06:03:31;18.52;;;11.00;;
52434;SDS011;38354;52.892;6.148;2022-10-17T06:06:07;25.08;;;11.30;;
52434;SDS011;38354;52.892;6.148;2022-10-17T06:08:35;24.00;;;11.73;;
52434;SDS011;38354;52.892;6.148;2022-10-17T06:11:01;17.95;;;10.20;;
52434;SDS011;38354;52.892;6.148;2022-10-17T06:13:28;19.10;;;10.90;;
52434;SDS011;38354;52.892;6.148;2022-10-17T06:15:54;21.23;;;11.45;;
52434;SDS011;38354;52.892;6.148;2022-10-17T06:18:20;20.90;;;11.15;;
52434;SDS011;38354;52.892;6.148;2022-10-17T06:20:46;21.83;;;11.00;;
52434;SDS011;38354;52.892;6.148;2022-10-17T06:23:12;18.35;;;10.38;;
52434;SDS011;38354;52.892;6.148;2022-10-17T06:25:38;19.23;;;10.40;;
52434;SDS011;38354;52.892;6.148;2022-10-17T06:28:03;20.83;;;10.40;;
52434;SDS011;38354;52.892;6.148;2022-10-17T06:30:29;15.57;;;9.27;;
52434;SDS011;38354;52.892;6.148;2022-10-17T06:32:55;14.43;;;9.43;;
52434;SDS011;38354;52.892;6.148;2022-10-17T06:35:20;15.55;;;9.18;;
52434;SDS011;38354;52.892;6.148;2022-10-17T06:37:46;17.65;;;9.10;;
52434;SDS011;38354;52.892;6.148;2022-10-17T06:40:12;16.05;;;8.48;;
52434;SDS011;38354;52.892;6.148;2022-10-17T06:42:40;15.68;;;9.23;;
52434;SDS011;38354;52.892;6.148;2022-10-17T06:45:06;16.38;;;9.13;;
52434;SDS011;38354;52.892;6.148;2022-10-17T06:47:32;17.83;;;9.45;;
52434;SDS011;38354;52.892;6.148;2022-10-17T06:49:58;20.50;;;9.82;;
52434;SDS011;38354;52.892;6.148;2022-10-17T06:52:24;14.98;;;9.40;;
52434;SDS011;38354;52.892;6.148;2022-10-17T06:54:49;18.48;;;9.50;;
52434;SDS011;38354;52.892;6.148;2022-10-17T06:57:16;16.73;;;9.00;;
52434;SDS011;38354;52.892;6.148;2022-10-17T06:59:42;17.60;;;9.43;;
52434;SDS011;38354;52.892;6.148;2022-10-17T07:02:11;12.57;;;5.32;;
52434;SDS011;38354;52.892;6.148;2022-10-17T07:04:37;14.25;;;5.45;;
52434;SDS011;38354;52.892;6.148;2022-10-17T07:07:03;10.68;;;4.93;;
52434;SDS011;38354;52.892;6.148;2022-10-17T07:09:29;10.75;;;5.53;;
52434;SDS011;38354;52.892;6.148;2022-10-17T07:11:55;9.88;;;5.00;;
52434;SDS011;38354;52.892;6.148;2022-10-17T07:14:21;11.52;;;5.55;;
52434;SDS011;38354;52.892;6.148;2022-10-17T07:16:47;9.20;;;5.05;;
52434;SDS011;38354;52.892;6.148;2022-10-17T07:19:13;11.00;;;5.47;;
52434;SDS011;38354;52.892;6.148;2022-10-17T07:21:38;9.68;;;5.40;;
52434;SDS011;38354;52.892;6.148;2022-10-17T07:24:04;17.27;;;9.38;;
52434;SDS011;38354;52.892;6.148;2022-10-17T07:26:31;17.10;;;9.40;;
52434;SDS011;38354;52.892;6.148;2022-10-17T07:28:57;17.52;;;9.73;;
52434;SDS011;38354;52.892;6.148;2022-10-17T07:31:22;17.92;;;9.75;;
52434;SDS011;38354;52.892;6.148;2022-10-17T07:33:49;23.02;;;10.10;;
52434;SDS011;38354;52.892;6.148;2022-10-17T07:36:15;8.77;;;4.07;;
52434;SDS011;38354;52.892;6.148;2022-10-17T07:38:41;9.52;;;4.57;;
52434;SDS011;38354;52.892;6.148;2022-10-17T07:41:07;9.88;;;4.90;;
52434;SDS011;38354;52.892;6.148;2022-10-17T07:43:35;13.75;;;4.53;;
52434;SDS011;38354;52.892;6.148;2022-10-17T07:46:01;12.10;;;5.03;;
52434;SDS011;38354;52.892;6.148;2022-10-17T07:48:28;15.57;;;5.25;;
52434;SDS011;38354;52.892;6.148;2022-10-17T07:50:54;13.60;;;7.35;;
52434;SDS011;38354;52.892;6.148;2022-10-17T07:53:20;13.13;;;6.50;;
52434;SDS011;38354;52.892;6.148;2022-10-17T07:55:46;19.15;;;7.47;;
52434;SDS011;38354;52.892;6.148;2022-10-17T07:58:13;13.05;;;6.60;;
52434;SDS011;38354;52.892;6.148;2022-10-17T08:00:39;16.80;;;7.57;;
52434;SDS011;38354;52.892;6.148;2022-10-17T08:03:05;15.23;;;8.07;;
52434;SDS011;38354;52.892;6.148;2022-10-17T08:05:31;12.55;;;7.35;;
52434;SDS011;38354;52.892;6.148;2022-10-17T08:07:57;11.32;;;6.90;;
52434;SDS011;38354;52.892;6.148;2022-10-17T08:10:23;12.88;;;7.43;;
52434;SDS011;38354;52.892;6.148;2022-10-17T08:12:55;16.55;;;8.02;;
52434;SDS011;38354;52.892;6.148;2022-10-17T08:15:21;16.63;;;7.32;;
52434;SDS011;38354;52.892;6.148;2022-10-17T08:17:48;12.55;;;7.32;;
52434;SDS011;38354;52.892;6.148;2022-10-17T08:20:14;15.52;;;7.60;;
52434;SDS011;38354;52.892;6.148;2022-10-17T08:22:40;12.40;;;7.80;;
52434;SDS011;38354;52.892;6.148;2022-10-17T08:25:05;15.45;;;8.27;;
52434;SDS011;38354;52.892;6.148;2022-10-17T08:27:32;12.68;;;7.30;;
52434;SDS011;38354;52.892;6.148;2022-10-17T08:29:58;16.70;;;8.43;;
52434;SDS011;38354;52.892;6.148;2022-10-17T08:32:25;10.57;;;6.95;;
52434;SDS011;38354;52.892;6.148;2022-10-17T08:34:52;15.43;;;8.10;;
52434;SDS011;38354;52.892;6.148;2022-10-17T08:37:20;13.68;;;7.22;;
52434;SDS011;38354;52.892;6.148;2022-10-17T08:39:46;13.63;;;7.75;;
52434;SDS011;38354;52.892;6.148;2022-10-17T08:42:33;14.93;;;7.70;;
52434;SDS011;38354;52.892;6.148;2022-10-17T08:45:32;12.55;;;7.55;;
52434;SDS011;38354;52.892;6.148;2022-10-17T08:48:08;12.88;;;7.18;;
52434;SDS011;38354;52.892;6.148;2022-10-17T08:53:24;10.60;;;7.30;;
52434;SDS011;38354;52.892;6.148;2022-10-17T08:55:54;13.50;;;6.90;;
52434;SDS011;38354;52.892;6.148;2022-10-17T08:58:23;17.02;;;7.00;;
52434;SDS011;38354;52.892;6.148;2022-10-17T09:18:28;10.70;;;6.70;;
52434;SDS011;38354;52.892;6.148;2022-10-17T09:23:52;11.65;;;7.00;;
52434;SDS011;38354;52.892;6.148;2022-10-17T09:26:20;12.45;;;6.90;;
52434;SDS011;38354;52.892;6.148;2022-10-17T09:28:51;14.60;;;7.57;;
52434;SDS011;38354;52.892;6.148;2022-10-17T09:31:31;15.40;;;7.00;;
52434;SDS011;38354;52.892;6.148;2022-10-17T09:34:07;11.93;;;6.80;;
52434;SDS011;38354;52.892;6.148;2022-10-17T09:36:35;15.77;;;7.13;;
52434;SDS011;38354;52.892;6.148;2022-10-17T09:39:16;14.95;;;8.25;;
52434;SDS011;38354;52.892;6.148;2022-10-17T09:41:47;15.30;;;6.90;;
52434;SDS011;38354;52.892;6.148;2022-10-17T09:44:22;15.07;;;6.70;;
52434;SDS011;38354;52.892;6.148;2022-10-17T09:47:01;15.10;;;7.75;;
52434;SDS011;38354;52.892;6.148;2022-10-17T09:49:37;15.15;;;7.82;;
52434;SDS011;38354;52.892;6.148;2022-10-17T09:52:06;16.42;;;7.53;;
52434;SDS011;38354;52.892;6.148;2022-10-17T09:54:44;16.13;;;8.75;;
52434;SDS011;38354;52.892;6.148;2022-10-17T09:57:14;20.75;;;11.63;;
52434;SDS011;38354;52.892;6.148;2022-10-17T09:59:42;22.52;;;10.52;;
52434;SDS011;38354;52.892;6.148;2022-10-17T10:04:43;15.88;;;10.82;;
52434;SDS011;38354;52.892;6.148;2022-10-17T10:07:24;18.33;;;10.68;;
52434;SDS011;38354;52.892;6.148;2022-10-17T10:09:54;21.83;;;10.13;;
52434;SDS011;38354;52.892;6.148;2022-10-17T10:12:28;20.50;;;9.90;;
52434;SDS011;38354;52.892;6.148;2022-10-17T10:14:56;20.85;;;9.95;;
52434;SDS011;38354;52.892;6.148;2022-10-17T10:19:59;18.52;;;10.05;;
52434;SDS011;38354;52.892;6.148;2022-10-17T10:22:25;21.25;;;10.88;;
52434;SDS011;38354;52.892;6.148;2022-10-17T10:27:35;23.75;;;11.77;;
52434;SDS011;38354;52.892;6.148;2022-10-17T10:30:03;23.00;;;11.02;;
52434;SDS011;38354;52.892;6.148;2022-10-17T10:32:33;21.25;;;10.35;;
52434;SDS011;38354;52.892;6.148;2022-10-17T10:35:17;22.58;;;11.50;;
52434;SDS011;38354;52.892;6.148;2022-10-17T10:37:50;21.67;;;10.65;;
52434;SDS011;38354;52.892;6.148;2022-10-17T10:42:50;17.80;;;10.10;;
52434;SDS011;38354;52.892;6.148;2022-10-17T10:50:25;24.17;;;11.95;;
52434;SDS011;38354;52.892;6.148;2022-10-17T10:56:17;25.33;;;12.00;;
52434;SDS011;38354;52.892;6.148;2022-10-17T11:06:35;20.58;;;11.30;;
52434;SDS011;38354;52.892;6.148;2022-10-17T11:11:36;22.20;;;11.88;;
52434;SDS011;38354;52.892;6.148;2022-10-17T11:17:10;27.02;;;12.20;;
52434;SDS011;38354;52.892;6.148;2022-10-17T11:19:44;24.35;;;12.77;;
52434;SDS011;38354;52.892;6.148;2022-10-17T11:22:27;18.40;;;11.65;;
52434;SDS011;38354;52.892;6.148;2022-10-17T11:27:28;22.00;;;12.23;;
52434;SDS011;38354;52.892;6.148;2022-10-17T11:29:55;22.27;;;12.02;;
52434;SDS011;38354;52.892;6.148;2022-10-17T11:34:57;13.98;;;6.70;;
52434;SDS011;38354;52.892;6.148;2022-10-17T11:37:30;10.97;;;5.77;;
52434;SDS011;38354;52.892;6.148;2022-10-17T11:42:41;12.95;;;6.05;;
52434;SDS011;38354;52.892;6.148;2022-10-17T11:45:24;15.15;;;6.53;;
52434;SDS011;38354;52.892;6.148;2022-10-17T11:47:56;12.52;;;5.97;;
52434;SDS011;38354;52.892;6.148;2022-10-17T11:50:36;20.25;;;6.55;;
52434;SDS011;38354;52.892;6.148;2022-10-17T11:55:46;12.27;;;5.72;;
52434;SDS011;38354;52.892;6.148;2022-10-17T12:00:51;11.93;;;5.63;;
52434;SDS011;38354;52.892;6.148;2022-10-17T12:03:33;10.85;;;5.65;;
52434;SDS011;38354;52.892;6.148;2022-10-17T12:06:12;11.77;;;5.18;;
52434;SDS011;38354;52.892;6.148;2022-10-17T12:22:46;9.95;;;6.78;;
52434;SDS011;38354;52.892;6.148;2022-10-17T12:27:46;11.83;;;6.70;;
52434;SDS011;38354;52.892;6.148;2022-10-17T12:30:15;12.45;;;6.35;;
52434;SDS011;38354;52.892;6.148;2022-10-17T12:32:55;11.40;;;6.60;;
52434;SDS011;38354;52.892;6.148;2022-10-17T12:35:23;11.30;;;5.50;;
52434;SDS011;38354;52.892;6.148;2022-10-17T12:42:59;6.75;;;4.65;;
52434;SDS011;38354;52.892;6.148;2022-10-17T12:56:18;10.55;;;5.35;;
52434;SDS011;38354;52.892;6.148;2022-10-17T12:58:47;15.32;;;5.90;;
52434;SDS011;38354;52.892;6.148;2022-10-17T13:01:18;11.23;;;4.88;;
52434;SDS011;38354;52.892;6.148;2022-10-17T13:03:56;8.55;;;4.97;;
52434;SDS011;38354;52.892;6.148;2022-10-17T13:06:30;15.20;;;5.10;;
52434;SDS011;38354;52.892;6.148;2022-10-17T13:09:05;7.90;;;4.35;;
52434;SDS011;38354;52.892;6.148;2022-10-17T13:11:35;8.65;;;4.68;;
52434;SDS011;38354;52.892;6.148;2022-10-17T13:14:08;13.07;;;4.47;;
52434;SDS011;38354;52.892;6.148;2022-10-17T13:16:42;7.05;;;4.07;;
52434;SDS011;38354;52.892;6.148;2022-10-17T13:19:44;9.13;;;4.55;;
52434;SDS011;38354;52.892;6.148;2022-10-17T13:22:12;9.00;;;4.10;;
52434;SDS011;38354;52.892;6.148;2022-10-17T13:24:41;8.48;;;4.50;;
52434;SDS011;38354;52.892;6.148;2022-10-17T13:29:55;8.55;;;3.90;;
52434;SDS011;38354;52.892;6.148;2022-10-17T13:32:23;8.48;;;3.55;;
52434;SDS011;38354;52.892;6.148;2022-10-17T13:37:36;5.90;;;3.05;;
52434;SDS011;38354;52.892;6.148;2022-10-17T13:40:05;9.60;;;3.65;;
52434;SDS011;38354;52.892;6.148;2022-10-17T13:42:38;7.65;;;3.67;;
52434;SDS011;38354;52.892;6.148;2022-10-17T13:45:12;6.70;;;3.25;;
52434;SDS011;38354;52.892;6.148;2022-10-17T13:47:43;6.55;;;3.00;;
52434;SDS011;38354;52.892;6.148;2022-10-17T13:50:18;5.07;;;2.88;;
52434;SDS011;38354;52.892;6.148;2022-10-17T13:56:01;4.85;;;2.60;;
52434;SDS011;38354;52.892;6.148;2022-10-17T13:58:43;8.25;;;2.65;;
52434;SDS011;38354;52.892;6.148;2022-10-17T14:01:11;6.45;;;2.10;;
52434;SDS011;38354;52.892;6.148;2022-10-17T14:03:39;3.97;;;1.95;;
52434;SDS011;38354;52.892;6.148;2022-10-17T14:06:16;5.60;;;2.10;;
52434;SDS011;38354;52.892;6.148;2022-10-17T14:08:55;6.25;;;2.03;;
52434;SDS011;38354;52.892;6.148;2022-10-17T14:14:00;3.65;;;1.90;;
52434;SDS011;38354;52.892;6.148;2022-10-17T14:16:33;4.93;;;2.08;;
52434;SDS011;38354;52.892;6.148;2022-10-17T14:19:01;5.57;;;1.85;;
52434;SDS011;38354;52.892;6.148;2022-10-17T14:21:28;4.85;;;1.95;;
52434;SDS011;38354;52.892;6.148;2022-10-17T14:26:50;5.82;;;2.72;;
52434;SDS011;38354;52.892;6.148;2022-10-17T14:29:21;5.20;;;2.47;;
52434;SDS011;38354;52.892;6.148;2022-10-17T14:31:48;5.53;;;2.13;;
52434;SDS011;38354;52.892;6.148;2022-10-17T14:34:21;4.05;;;2.30;;
52434;SDS011;38354;52.892;6.148;2022-10-17T14:36:51;5.47;;;2.15;;
52434;SDS011;38354;52.892;6.148;2022-10-17T14:39:18;4.88;;;2.05;;
52434;SDS011;38354;52.892;6.148;2022-10-17T14:41:47;4.78;;;2.17;;
52434;SDS011;38354;52.892;6.148;2022-10-17T14:44:25;5.85;;;1.98;;
52434;SDS011;38354;52.892;6.148;2022-10-17T14:46:54;3.72;;;2.28;;
52434;SDS011;38354;52.892;6.148;2022-10-17T14:49:25;6.35;;;2.30;;
52434;SDS011;38354;52.892;6.148;2022-10-17T14:54:35;8.20;;;2.50;;
52434;SDS011;38354;52.892;6.148;2022-10-17T14:57:07;10.73;;;2.40;;
52434;SDS011;38354;52.892;6.148;2022-10-17T14:59:39;4.72;;;2.83;;
52434;SDS011;38354;52.892;6.148;2022-10-17T15:02:05;6.80;;;2.80;;
52434;SDS011;38354;52.892;6.148;2022-10-17T15:04:30;6.78;;;2.42;;
52434;SDS011;38354;52.892;6.148;2022-10-17T15:06:56;6.18;;;2.65;;
52434;SDS011;38354;52.892;6.148;2022-10-17T15:09:22;4.90;;;2.72;;
52434;SDS011;38354;52.892;6.148;2022-10-17T15:11:48;6.68;;;2.72;;
52434;SDS011;38354;52.892;6.148;2022-10-17T15:14:14;5.78;;;2.75;;
52434;SDS011;38354;52.892;6.148;2022-10-17T15:16:39;5.50;;;2.47;;
52434;SDS011;38354;52.892;6.148;2022-10-17T15:19:05;5.20;;;2.20;;
52434;SDS011;38354;52.892;6.148;2022-10-17T15:21:31;5.90;;;2.22;;
52434;SDS011;38354;52.892;6.148;2022-10-17T15:23:56;5.75;;;2.28;;
52434;SDS011;38354;52.892;6.148;2022-10-17T15:26:25;6.47;;;2.22;;
52434;SDS011;38354;52.892;6.148;2022-10-17T15:28:55;6.30;;;2.20;;
52434;SDS011;38354;52.892;6.148;2022-10-17T15:31:21;5.45;;;2.60;;
52434;SDS011;38354;52.892;6.148;2022-10-17T15:33:48;9.45;;;2.85;;
52434;SDS011;38354;52.892;6.148;2022-10-17T15:36:27;4.88;;;2.53;;
52434;SDS011;38354;52.892;6.148;2022-10-17T15:39:02;6.55;;;2.75;;
52434;SDS011;38354;52.892;6.148;2022-10-17T15:41:29;6.95;;;2.97;;
52434;SDS011;38354;52.892;6.148;2022-10-17T15:43:55;5.13;;;2.70;;
52434;SDS011;38354;52.892;6.148;2022-10-17T15:46:22;6.35;;;2.95;;
52434;SDS011;38354;52.892;6.148;2022-10-17T15:49:05;6.07;;;3.00;;
52434;SDS011;38354;52.892;6.148;2022-10-17T15:51:35;6.82;;;3.28;;
52434;SDS011;38354;52.892;6.148;2022-10-17T15:54:01;6.30;;;3.40;;
52434;SDS011;38354;52.892;6.148;2022-10-17T15:56:34;7.80;;;3.10;;
52434;SDS011;38354;52.892;6.148;2022-10-17T15:59:03;6.25;;;3.60;;
52434;SDS011;38354;52.892;6.148;2022-10-17T16:01:30;7.15;;;3.67;;
52434;SDS011;38354;52.892;6.148;2022-10-17T16:03:57;7.65;;;2.63;;
52434;SDS011;38354;52.892;6.148;2022-10-17T16:06:23;5.95;;;3.00;;
52434;SDS011;38354;52.892;6.148;2022-10-17T16:08:49;6.55;;;2.92;;
52434;SDS011;38354;52.892;6.148;2022-10-17T16:13:56;7.25;;;3.38;;
52434;SDS011;38354;52.892;6.148;2022-10-17T16:16:25;10.38;;;3.85;;
52434;SDS011;38354;52.892;6.148;2022-10-17T16:18:51;8.77;;;3.95;;
52434;SDS011;38354;52.892;6.148;2022-10-17T16:21:16;10.52;;;3.95;;
52434;SDS011;38354;52.892;6.148;2022-10-17T16:23:44;7.38;;;3.70;;
52434;SDS011;38354;52.892;6.148;2022-10-17T16:26:10;10.45;;;3.78;;
52434;SDS011;38354;52.892;6.148;2022-10-17T16:28:40;9.20;;;4.90;;
52434;SDS011;38354;52.892;6.148;2022-10-17T16:31:22;8.95;;;4.95;;
52434;SDS011;38354;52.892;6.148;2022-10-17T16:33:51;10.23;;;4.90;;
52434;SDS011;38354;52.892;6.148;2022-10-17T16:36:18;8.57;;;5.07;;
52434;SDS011;38354;52.892;6.148;2022-10-17T16:38:44;13.38;;;5.70;;
52434;SDS011;38354;52.892;6.148;2022-10-17T16:41:33;14.65;;;5.90;;
52434;SDS011;38354;52.892;6.148;2022-10-17T16:44:03;17.38;;;5.93;;
52434;SDS011;38354;52.892;6.148;2022-10-17T16:46:31;13.98;;;7.28;;
52434;SDS011;38354;52.892;6.148;2022-10-17T16:48:57;13.13;;;6.00;;
52434;SDS011;38354;52.892;6.148;2022-10-17T16:51:23;9.60;;;5.95;;
52434;SDS011;38354;52.892;6.148;2022-10-17T16:53:50;9.32;;;6.40;;
52434;SDS011;38354;52.892;6.148;2022-10-17T16:56:22;13.20;;;7.60;;
52434;SDS011;38354;52.892;6.148;2022-10-17T16:58:48;16.20;;;7.10;;
52434;SDS011;38354;52.892;6.148;2022-10-17T17:01:16;12.23;;;7.30;;
52434;SDS011;38354;52.892;6.148;2022-10-17T17:03:44;13.77;;;9.10;;
52434;SDS011;38354;52.892;6.148;2022-10-17T17:06:12;12.43;;;7.97;;
52434;SDS011;38354;52.892;6.148;2022-10-17T17:08:43;15.98;;;8.60;;
52434;SDS011;38354;52.892;6.148;2022-10-17T17:11:10;15.52;;;9.27;;
52434;SDS011;38354;52.892;6.148;2022-10-17T17:13:37;13.90;;;8.55;;
52434;SDS011;38354;52.892;6.148;2022-10-17T17:16:10;16.38;;;8.75;;
52434;SDS011;38354;52.892;6.148;2022-10-17T17:18:37;15.48;;;8.57;;
52434;SDS011;38354;52.892;6.148;2022-10-17T17:21:04;14.85;;;9.18;;
52434;SDS011;38354;52.892;6.148;2022-10-17T17:23:32;17.10;;;10.30;;
52434;SDS011;38354;52.892;6.148;2022-10-17T17:25:59;16.60;;;9.70;;
52434;SDS011;38354;52.892;6.148;2022-10-17T17:31:15;17.20;;;9.63;;
52434;SDS011;38354;52.892;6.148;2022-10-17T17:33:42;18.23;;;10.65;;
52434;SDS011;38354;52.892;6.148;2022-10-17T17:36:09;15.43;;;9.18;;
52434;SDS011;38354;52.892;6.148;2022-10-17T17:38:37;15.82;;;10.43;;
52434;SDS011;38354;52.892;6.148;2022-10-17T17:41:05;17.40;;;10.73;;
52434;SDS011;38354;52.892;6.148;2022-10-17T17:43:31;17.98;;;10.15;;
52434;SDS011;38354;52.892;6.148;2022-10-17T17:45:59;18.75;;;10.35;;
52434;SDS011;38354;52.892;6.148;2022-10-17T17:48:25;18.23;;;10.27;;
52434;SDS011;38354;52.892;6.148;2022-10-17T17:50:51;22.30;;;11.60;;
52434;SDS011;38354;52.892;6.148;2022-10-17T17:53:16;23.15;;;13.88;;
52434;SDS011;38354;52.892;6.148;2022-10-17T17:55:42;21.70;;;12.35;;
52434;SDS011;38354;52.892;6.148;2022-10-17T17:58:08;18.17;;;11.77;;
52434;SDS011;38354;52.892;6.148;2022-10-17T18:00:36;19.08;;;11.38;;
52434;SDS011;38354;52.892;6.148;2022-10-17T18:03:04;19.58;;;11.45;;
52434;SDS011;38354;52.892;6.148;2022-10-17T18:05:29;18.80;;;11.68;;
52434;SDS011;38354;52.892;6.148;2022-10-17T18:07:55;20.92;;;12.38;;
52434;SDS011;38354;52.892;6.148;2022-10-17T18:10:21;18.02;;;11.23;;
52434;SDS011;38354;52.892;6.148;2022-10-17T18:12:47;22.80;;;11.77;;
52434;SDS011;38354;52.892;6.148;2022-10-17T18:15:13;21.20;;;12.02;;
52434;SDS011;38354;52.892;6.148;2022-10-17T18:17:39;18.02;;;11.23;;
52434;SDS011;38354;52.892;6.148;2022-10-17T18:20:05;18.88;;;11.55;;
52434;SDS011;38354;52.892;6.148;2022-10-17T18:22:31;22.05;;;11.52;;
52434;SDS011;38354;52.892;6.148;2022-10-17T18:24:56;18.17;;;11.75;;
52434;SDS011;38354;52.892;6.148;2022-10-17T18:27:22;18.90;;;12.27;;
52434;SDS011;38354;52.892;6.148;2022-10-17T18:29:48;21.85;;;12.43;;
52434;SDS011;38354;52.892;6.148;2022-10-17T18:32:15;21.73;;;13.43;;
52434;SDS011;38354;52.892;6.148;2022-10-17T18:34:41;23.63;;;13.35;;
52434;SDS011;38354;52.892;6.148;2022-10-17T18:37:07;22.08;;;13.27;;
52434;SDS011;38354;52.892;6.148;2022-10-17T18:39:33;20.05;;;13.05;;
52434;SDS011;38354;52.892;6.148;2022-10-17T18:41:59;23.10;;;14.70;;
52434;SDS011;38354;52.892;6.148;2022-10-17T18:44:24;29.85;;;18.80;;
52434;SDS011;38354;52.892;6.148;2022-10-17T18:46:50;29.55;;;18.67;;
52434;SDS011;38354;52.892;6.148;2022-10-17T18:49:17;25.85;;;13.68;;
52434;SDS011;38354;52.892;6.148;2022-10-17T18:51:43;24.77;;;14.07;;
52434;SDS011;38354;52.892;6.148;2022-10-17T18:54:10;25.98;;;15.00;;
52434;SDS011;38354;52.892;6.148;2022-10-17T18:56:39;23.58;;;14.45;;
52434;SDS011;38354;52.892;6.148;2022-10-17T18:59:04;27.58;;;16.20;;
52434;SDS011;38354;52.892;6.148;2022-10-17T19:01:30;27.77;;;16.45;;
52434;SDS011;38354;52.892;6.148;2022-10-17T19:03:56;27.58;;;15.35;;
52434;SDS011;38354;52.892;6.148;2022-10-17T19:06:24;23.67;;;15.07;;
52434;SDS011;38354;52.892;6.148;2022-10-17T19:08:52;25.45;;;15.95;;
52434;SDS011;38354;52.892;6.148;2022-10-17T19:11:19;29.42;;;17.27;;
52434;SDS011;38354;52.892;6.148;2022-10-17T19:13:47;26.10;;;15.80;;
52434;SDS011;38354;52.892;6.148;2022-10-17T19:16:14;34.20;;;16.35;;
52434;SDS011;38354;52.892;6.148;2022-10-17T19:18:51;26.60;;;16.70;;
52434;SDS011;38354;52.892;6.148;2022-10-17T19:21:19;33.08;;;19.15;;
52434;SDS011;38354;52.892;6.148;2022-10-17T19:23:48;30.67;;;17.15;;
52434;SDS011;38354;52.892;6.148;2022-10-17T19:26:15;29.95;;;17.52;;
52434;SDS011;38354;52.892;6.148;2022-10-17T19:28:41;27.00;;;16.52;;
52434;SDS011;38354;52.892;6.148;2022-10-17T19:31:07;33.65;;;18.02;;
52434;SDS011;38354;52.892;6.148;2022-10-17T19:33:32;38.58;;;18.85;;
52434;SDS011;38354;52.892;6.148;2022-10-17T19:36:00;32.50;;;17.13;;
52434;SDS011;38354;52.892;6.148;2022-10-17T19:38:27;31.90;;;18.23;;
52434;SDS011;38354;52.892;6.148;2022-10-17T19:40:53;33.88;;;17.52;;